Time;durP1;ratioP1;P1;durP2;ratioP2;P2;SDS_P1;SDS_P2;PMS_P1;PMS_P2;Temp;Humidity;BMP_temperature;BMP_pressure;BME280_temperature;BME280_humidity;BME280_pressure;Samples;Min_cycle;Max_cycle;Signal;HPM_P1;HPM_P2
2022/12/11 00:00:02;;;;;;;52.20;26.40;;;0.00;99.90;;;;;;5057912;28;20475;-66
2022/12/11 00:02:29;;;;;;;55.63;27.37;;;0.00;99.90;;;;;;5057742;28;20490;-66
2022/12/11 00:04:56;;;;;;;53.87;28.17;;;0.00;99.90;;;;;;5058013;28;20955;-66
2022/12/11 00:07:25;;;;;;;57.60;26.37;;;0.00;99.90;;;;;;5058072;28;20785;-66
2022/12/11 00:09:53;;;;;;;51.00;26.70;;;-0.10;99.90;;;;;;5057477;28;20462;-66
2022/12/11 00:12:20;;;;;;;57.60;25.53;;;0.00;99.90;;;;;;5057322;28;20588;-66
2022/12/11 00:14:47;;;;;;;48.10;24.67;;;0.00;99.90;;;;;;5057361;28;20497;-66
2022/12/11 00:17:14;;;;;;;50.07;24.50;;;0.00;99.90;;;;;;5057943;28;20467;-66
2022/12/11 00:19:41;;;;;;;57.90;26.10;;;-0.10;99.90;;;;;;5056748;28;20465;-66
2022/12/11 00:22:08;;;;;;;53.03;26.30;;;-0.10;99.90;;;;;;5057791;28;20461;-66
2022/12/11 00:24:37;;;;;;;55.70;26.03;;;-0.10;99.90;;;;;;5057765;28;20463;-66
2022/12/11 00:27:04;;;;;;;48.13;23.57;;;-0.10;99.90;;;;;;5057902;28;20476;-66
2022/12/11 00:29:31;;;;;;;53.00;27.37;;;-0.20;99.90;;;;;;5057242;28;20490;-66
2022/12/11 00:31:59;;;;;;;48.03;21.60;;;-0.10;99.90;;;;;;5057918;28;20779;-66
2022/12/11 00:34:26;;;;;;;49.77;21.67;;;-0.10;99.90;;;;;;5056908;28;20447;-66
2022/12/11 00:36:53;;;;;;;38.97;20.73;;;-0.20;99.90;;;;;;5057039;28;20443;-66
2022/12/11 00:39:21;;;;;;;43.33;21.10;;;-0.30;99.90;;;;;;5056050;28;20475;-66
2022/12/11 00:41:49;;;;;;;41.07;21.30;;;-0.30;99.90;;;;;;5057483;28;20813;-66
2022/12/11 00:44:16;;;;;;;47.23;21.20;;;-0.30;99.90;;;;;;5057031;28;20564;-66
2022/12/11 00:46:43;;;;;;;37.63;19.53;;;-0.30;99.90;;;;;;5056244;28;20506;-66
2022/12/11 00:49:11;;;;;;;42.07;20.73;;;-0.30;99.90;;;;;;5057121;28;20464;-66
2022/12/11 00:51:38;;;;;;;38.63;21.10;;;-0.30;99.90;;;;;;5057674;28;20500;-66
2022/12/11 00:54:06;;;;;;;47.23;22.73;;;-0.30;99.90;;;;;;5057653;28;20891;-66
2022/12/11 00:56:34;;;;;;;49.60;21.80;;;-0.30;99.90;;;;;;5057181;28;20748;-66
2022/12/11 00:59:03;;;;;;;46.63;22.93;;;-0.40;99.90;;;;;;5056737;28;20538;-66
2022/12/11 01:01:30;;;;;;;47.97;23.33;;;-0.30;99.90;;;;;;5057270;28;20463;-66
2022/12/11 01:03:57;;;;;;;42.10;22.43;;;-0.30;99.90;;;;;;5057202;28;20471;-66
2022/12/11 01:06:26;;;;;;;43.20;22.30;;;-0.20;99.90;;;;;;5056346;28;20710;-66
2022/12/11 01:10:22;;;;;;;53.33;23.07;;;-0.20;99.90;;;;;;5057385;28;20743;-67
2022/12/11 01:11:42;;;;;;;55.33;24.30;;;-0.30;99.90;;;;;;5057171;28;20480;-66
2022/12/11 01:14:11;;;;;;;48.60;23.67;;;-0.20;99.90;;;;;;5065227;28;20940;-66
2022/12/11 01:16:38;;;;;;;55.57;27.07;;;-0.20;99.90;;;;;;5068968;28;20456;-66
2022/12/11 01:19:06;;;;;;;55.87;25.80;;;-0.20;99.90;;;;;;5080433;28;20437;-66
2022/12/11 01:21:33;;;;;;;53.27;24.67;;;-0.20;99.90;;;;;;5081395;28;20817;-66
2022/12/11 01:24:00;;;;;;;62.97;27.70;;;-0.20;99.90;;;;;;5081088;28;20472;-66
2022/12/11 01:26:28;;;;;;;58.07;28.03;;;-0.20;99.90;;;;;;5081422;28;20433;-66
2022/12/11 01:28:55;;;;;;;59.57;26.97;;;-0.10;99.90;;;;;;5080789;28;20846;-66
2022/12/11 01:31:24;;;;;;;59.33;26.77;;;-0.20;99.90;;;;;;5080808;28;20493;-66
2022/12/11 01:33:53;;;;;;;75.80;30.20;;;-0.10;99.90;;;;;;5080490;28;20466;-66
2022/12/11 01:36:22;;;;;;;62.23;27.70;;;-0.20;99.90;;;;;;5078902;28;20445;-66
2022/12/11 01:38:50;;;;;;;85.20;29.47;;;-0.20;99.90;;;;;;5078895;28;20468;-66
2022/12/11 01:41:17;;;;;;;63.30;27.43;;;-0.20;99.90;;;;;;5079271;28;20463;-66
2022/12/11 01:44:04;;;;;;;85.43;34.97;;;-0.20;99.90;;;;;;5079618;28;20470;-66
2022/12/11 01:46:34;;;;;;;83.87;30.80;;;-0.10;99.90;;;;;;5079375;28;20458;-66
2022/12/11 01:49:04;;;;;;;81.40;29.87;;;-0.10;99.90;;;;;;5080011;28;20877;-66
2022/12/11 01:51:35;;;;;;;75.60;33.30;;;-0.10;99.90;;;;;;5081026;28;20491;-66
2022/12/11 01:54:07;;;;;;;108.90;40.73;;;-0.20;99.90;;;;;;5080801;28;20788;-66
2022/12/11 01:56:36;;;;;;;97.63;41.60;;;-0.30;99.90;;;;;;5080673;28;20723;-66
2022/12/11 01:59:06;;;;;;;91.73;37.80;;;-0.20;99.90;;;;;;5080711;28;20754;-66
2022/12/11 02:01:39;;;;;;;167.47;79.43;;;-0.10;99.90;;;;;;5080707;28;20456;-66
2022/12/11 02:04:08;;;;;;;100.10;38.87;;;-0.10;99.90;;;;;;5080790;28;20476;-66
2022/12/11 02:06:38;;;;;;;95.77;40.80;;;-0.10;99.90;;;;;;5079950;28;20467;-66
2022/12/11 02:09:07;;;;;;;96.07;36.10;;;-0.10;99.90;;;;;;5080468;28;20462;-67
2022/12/11 02:11:43;;;;;;;86.20;35.30;;;-0.10;99.90;;;;;;5080255;28;20593;-66
2022/12/11 02:14:17;;;;;;;89.10;34.67;;;-0.20;99.90;;;;;;5080385;28;20433;-67
2022/12/11 02:16:51;;;;;;;85.00;34.63;;;-0.20;99.90;;;;;;5080049;28;20557;-66
2022/12/11 02:19:29;;;;;;;87.10;33.37;;;-0.20;99.90;;;;;;5080400;28;20470;-67
2022/12/11 02:21:58;;;;;;;92.77;35.63;;;-0.10;99.90;;;;;;5080090;28;20514;-66
2022/12/11 02:24:51;;;;;;;81.10;34.60;;;-0.10;99.90;;;;;;5079506;28;20439;-66
2022/12/11 02:27:28;;;;;;;99.50;32.53;;;-0.20;99.90;;;;;;5080138;28;20467;-67
2022/12/11 02:30:02;;;;;;;75.77;30.47;;;0.00;99.90;;;;;;5079020;28;20506;-67
2022/12/11 02:32:35;;;;;;;88.03;33.73;;;-0.10;99.90;;;;;;5079167;28;20492;-66
2022/12/11 02:35:09;;;;;;;91.20;33.83;;;-0.10;99.90;;;;;;5079768;28;20470;-66
2022/12/11 02:37:38;;;;;;;79.40;32.67;;;-0.10;99.90;;;;;;5079878;28;20511;-66
2022/12/11 02:40:11;;;;;;;76.93;31.80;;;0.00;99.90;;;;;;5080170;28;20468;-67
2022/12/11 02:42:41;;;;;;;75.10;31.03;;;0.00;99.90;;;;;;5079789;28;20548;-67
2022/12/11 02:45:12;;;;;;;70.67;30.77;;;-0.10;99.90;;;;;;5079897;28;20466;-66
2022/12/11 02:47:40;;;;;;;75.67;32.83;;;-0.10;99.90;;;;;;5079577;28;20843;-66
2022/12/11 02:50:11;;;;;;;68.67;27.43;;;0.00;99.90;;;;;;5079595;28;20474;-67
2022/12/11 02:52:40;;;;;;;67.97;30.07;;;-0.10;99.90;;;;;;5051942;28;20494;-67
2022/12/11 02:55:10;;;;;;;62.20;28.23;;;-0.10;99.90;;;;;;5056153;28;20486;-66
2022/12/11 02:57:42;;;;;;;82.73;31.97;;;-0.10;99.90;;;;;;5051680;28;20493;-67
2022/12/11 03:00:12;;;;;;;76.77;31.53;;;0.00;99.90;;;;;;5039659;28;20480;-66
2022/12/11 03:02:41;;;;;;;74.17;33.40;;;0.00;99.90;;;;;;5050933;28;20462;-67
2022/12/11 03:05:10;;;;;;;67.53;30.67;;;0.10;99.90;;;;;;5058310;28;20989;-67
2022/12/11 03:07:40;;;;;;;72.43;28.83;;;0.10;99.90;;;;;;5054626;28;20473;-67
2022/12/11 03:10:10;;;;;;;66.93;27.83;;;0.10;99.90;;;;;;5039013;28;20505;-67
2022/12/11 03:12:40;;;;;;;65.37;28.67;;;0.10;99.90;;;;;;5037784;28;20491;-67
2022/12/11 03:15:13;;;;;;;67.50;26.47;;;0.10;99.90;;;;;;5038346;28;20477;-66
2022/12/11 03:17:50;;;;;;;57.07;27.87;;;0.10;99.90;;;;;;5039112;28;20466;-66
2022/12/11 03:20:25;;;;;;;53.77;24.23;;;0.00;99.90;;;;;;5039494;28;20467;-67
2022/12/11 03:22:57;;;;;;;57.13;26.97;;;0.00;99.90;;;;;;5038864;28;20458;-67
2022/12/11 03:25:33;;;;;;;63.90;28.63;;;-0.10;99.90;;;;;;5038989;28;20900;-66
2022/12/11 03:28:06;;;;;;;58.27;25.77;;;0.00;99.90;;;;;;5039172;28;20536;-66
2022/12/11 03:30:37;;;;;;;61.50;26.67;;;-0.10;99.90;;;;;;5037908;28;20505;-66
2022/12/11 03:33:09;;;;;;;50.43;23.60;;;0.00;99.90;;;;;;5038152;28;20494;-66
2022/12/11 03:35:40;;;;;;;53.77;25.60;;;-0.10;99.90;;;;;;5038346;28;20440;-66
2022/12/11 03:38:12;;;;;;;57.17;26.37;;;-0.10;99.90;;;;;;5037979;28;20561;-66
2022/12/11 03:40:42;;;;;;;59.30;25.80;;;0.00;99.90;;;;;;5038241;28;20519;-66
2022/12/11 03:43:11;;;;;;;63.30;28.20;;;-0.10;99.90;;;;;;5038302;28;20465;-67
2022/12/11 03:45:41;;;;;;;64.87;28.83;;;-0.10;99.90;;;;;;5038362;28;20509;-67
2022/12/11 03:48:10;;;;;;;67.63;27.80;;;0.00;99.90;;;;;;5038099;28;20853;-66
2022/12/11 03:50:38;;;;;;;54.83;26.80;;;0.00;99.90;;;;;;5036584;28;20461;-66
2022/12/11 03:53:06;;;;;;;69.17;28.90;;;-0.10;99.90;;;;;;5036286;28;20843;-66
2022/12/11 03:55:34;;;;;;;73.97;28.00;;;-0.10;99.90;;;;;;5036844;28;20435;-66
2022/12/11 03:58:01;;;;;;;68.77;29.53;;;-0.10;99.90;;;;;;5037210;28;20471;-66
2022/12/11 04:00:29;;;;;;;67.73;30.30;;;-0.10;99.90;;;;;;5036597;28;20443;-66
2022/12/11 04:03:13;;;;;;;63.33;29.17;;;0.00;99.90;;;;;;5036783;28;20471;-66
2022/12/11 04:05:41;;;;;;;65.30;29.00;;;0.00;99.90;;;;;;5037251;28;20503;-66
2022/12/11 04:08:08;;;;;;;67.60;29.20;;;0.00;99.90;;;;;;5038360;28;20466;-66
2022/12/11 04:10:35;;;;;;;61.60;27.80;;;0.10;99.90;;;;;;5037823;28;20470;-66
2022/12/11 04:13:02;;;;;;;54.70;26.23;;;0.00;99.90;;;;;;5038058;28;20497;-66
2022/12/11 04:15:28;;;;;;;50.43;24.23;;;0.00;99.90;;;;;;5038200;28;20563;-66
2022/12/11 04:26:14;;;;;;;54.33;23.40;;;0.00;99.90;;;;;;5037876;28;20441;-66
2022/12/11 04:28:41;;;;;;;51.70;24.53;;;-0.10;99.90;;;;;;5037275;28;20461;-66
2022/12/11 04:31:13;;;;;;;54.70;24.50;;;0.00;99.90;;;;;;5036860;28;20547;-66
2022/12/11 04:33:42;;;;;;;45.13;24.03;;;0.00;99.90;;;;;;5037671;28;20568;-66
2022/12/11 04:36:10;;;;;;;57.20;25.03;;;0.00;99.90;;;;;;5038112;28;20445;-66
2022/12/11 04:38:37;;;;;;;55.90;25.40;;;0.10;99.90;;;;;;5037237;28;20557;-67
2022/12/11 04:41:07;;;;;;;45.53;22.90;;;0.10;99.90;;;;;;5038182;28;20472;-66
2022/12/11 04:43:34;;;;;;;50.00;25.30;;;0.00;99.90;;;;;;5037773;28;20461;-66
2022/12/11 04:46:03;;;;;;;52.90;26.03;;;0.00;99.90;;;;;;5038109;28;20446;-66
2022/12/11 04:48:30;;;;;;;52.67;23.10;;;0.00;99.90;;;;;;5037298;28;20469;-66
2022/12/11 04:50:59;;;;;;;42.03;20.00;;;0.00;99.90;;;;;;5037382;28;20736;-66
2022/12/11 04:53:27;;;;;;;43.80;22.43;;;0.00;99.90;;;;;;5037235;28;20508;-66
2022/12/11 04:55:54;;;;;;;52.03;25.97;;;0.00;99.90;;;;;;5037798;28;20783;-66
2022/12/11 04:58:22;;;;;;;58.67;27.70;;;0.00;99.90;;;;;;5037353;28;20476;-66
2022/12/11 05:00:49;;;;;;;56.20;25.60;;;0.00;99.90;;;;;;5037217;28;20498;-66
2022/12/11 05:03:16;;;;;;;48.23;22.50;;;0.00;99.90;;;;;;5037566;28;20461;-66
2022/12/11 05:05:49;;;;;;;51.07;23.27;;;0.00;99.90;;;;;;5036871;28;20774;-66
2022/12/11 05:08:18;;;;;;;46.20;22.00;;;0.00;99.90;;;;;;5037378;28;20459;-66
2022/12/11 05:10:45;;;;;;;42.23;19.23;;;0.00;99.90;;;;;;5036965;28;20445;-66
2022/12/11 05:13:12;;;;;;;50.87;22.70;;;0.10;99.90;;;;;;5037062;28;20495;-66
2022/12/11 05:15:40;;;;;;;47.17;22.87;;;0.10;99.90;;;;;;5037371;28;20466;-66
2022/12/11 05:18:07;;;;;;;41.23;20.17;;;0.00;99.90;;;;;;5037142;28;20783;-67
2022/12/11 05:20:34;;;;;;;29.63;15.43;;;0.00;99.90;;;;;;5037275;28;20789;-66
2022/12/11 05:23:01;;;;;;;25.33;12.83;;;0.00;99.90;;;;;;5036784;28;20459;-66
2022/12/11 05:25:30;;;;;;;24.60;13.23;;;-0.10;99.90;;;;;;5036757;28;20470;-66
2022/12/11 05:27:57;;;;;;;23.27;12.70;;;-0.10;99.90;;;;;;5037516;28;20478;-66
2022/12/11 05:30:25;;;;;;;18.63;10.33;;;-0.10;99.90;;;;;;5036595;28;20938;-66
2022/12/11 05:32:52;;;;;;;29.20;12.83;;;-0.10;99.90;;;;;;5036518;28;20494;-66
2022/12/11 05:35:19;;;;;;;29.40;13.57;;;-0.10;99.90;;;;;;5036921;28;20447;-66
2022/12/11 05:37:46;;;;;;;21.53;12.33;;;-0.10;99.90;;;;;;5037439;28;20500;-66
2022/12/11 05:40:14;;;;;;;19.60;11.47;;;-0.10;99.90;;;;;;5037167;28;20463;-67
2022/12/11 05:42:43;;;;;;;23.73;13.10;;;-0.10;99.90;;;;;;5036946;28;20486;-66
2022/12/11 05:45:11;;;;;;;20.83;12.20;;;-0.10;99.90;;;;;;5037164;28;20473;-66
2022/12/11 05:47:38;;;;;;;25.00;13.10;;;-0.10;99.90;;;;;;5036996;28;20497;-66
2022/12/11 05:50:06;;;;;;;21.10;11.50;;;0.00;99.90;;;;;;5037358;28;20459;-66
2022/12/11 05:52:33;;;;;;;24.10;13.07;;;0.00;99.90;;;;;;5036744;28;20522;-66
2022/12/11 05:55:01;;;;;;;24.93;14.50;;;0.00;99.90;;;;;;5036760;28;20762;-66
2022/12/11 05:57:28;;;;;;;23.10;11.70;;;0.00;99.90;;;;;;5037160;28;20778;-66
2022/12/11 05:59:56;;;;;;;22.37;12.40;;;-0.10;99.90;;;;;;5038511;28;20481;-67
2022/12/11 06:02:23;;;;;;;23.00;11.77;;;0.00;99.90;;;;;;5040340;28;20730;-66
2022/12/11 06:04:51;;;;;;;20.77;10.33;;;0.00;99.90;;;;;;5040360;28;20895;-66
2022/12/11 06:07:18;;;;;;;25.17;13.10;;;0.00;99.90;;;;;;5040244;28;20463;-66
2022/12/11 06:09:45;;;;;;;22.97;13.60;;;0.00;99.90;;;;;;5040679;28;20549;-66
2022/12/11 06:12:12;;;;;;;23.03;13.20;;;0.00;99.90;;;;;;5039446;28;20798;-66
2022/12/11 06:14:39;;;;;;;24.40;13.37;;;0.10;99.90;;;;;;5040104;28;20498;-66
2022/12/11 06:17:08;;;;;;;23.33;12.70;;;0.10;99.90;;;;;;5040173;28;20473;-67
2022/12/11 06:19:35;;;;;;;22.23;10.90;;;0.10;99.90;;;;;;5040321;28;20734;-66
2022/12/11 06:22:03;;;;;;;22.23;12.83;;;0.10;99.90;;;;;;5040522;28;20796;-66
2022/12/11 06:24:30;;;;;;;21.50;14.33;;;0.10;99.90;;;;;;5039921;28;20473;-66
2022/12/11 06:26:58;;;;;;;23.50;14.53;;;0.10;99.90;;;;;;5039980;28;20772;-66
2022/12/11 06:29:25;;;;;;;24.13;13.73;;;0.10;99.90;;;;;;5039710;28;20494;-66
2022/12/11 06:31:52;;;;;;;19.43;12.30;;;0.10;99.90;;;;;;5039716;28;20474;-67
2022/12/11 06:34:20;;;;;;;21.43;12.73;;;0.10;99.90;;;;;;5039894;28;20447;-66
2022/12/11 06:36:48;;;;;;;21.47;12.50;;;0.10;99.90;;;;;;5039448;28;20467;-66
2022/12/11 06:39:15;;;;;;;20.93;11.53;;;0.10;99.90;;;;;;5039897;28;20558;-66
2022/12/11 06:41:42;;;;;;;22.70;12.47;;;0.10;99.90;;;;;;5039762;28;20469;-66
2022/12/11 06:44:10;;;;;;;21.33;12.43;;;0.10;99.90;;;;;;5039904;28;20505;-66
2022/12/11 06:46:37;;;;;;;25.60;14.70;;;0.00;99.90;;;;;;5040024;28;20465;-67
2022/12/11 06:49:04;;;;;;;25.00;12.67;;;0.10;99.90;;;;;;5039401;28;20444;-66
2022/12/11 06:51:33;;;;;;;22.23;13.67;;;0.10;99.90;;;;;;5040031;28;20448;-66
2022/12/11 06:54:00;;;;;;;26.83;13.90;;;0.10;99.90;;;;;;5039662;28;20525;-66
2022/12/11 06:56:27;;;;;;;24.60;13.37;;;0.20;99.90;;;;;;5039427;28;20916;-66
2022/12/11 06:58:55;;;;;;;24.90;14.23;;;0.20;99.90;;;;;;5039459;28;20464;-66
2022/12/11 07:01:24;;;;;;;22.63;13.40;;;0.20;99.90;;;;;;5039174;28;20570;-66
2022/12/11 07:03:53;;;;;;;25.57;14.17;;;0.20;99.90;;;;;;5039564;28;20459;-66
2022/12/11 07:06:21;;;;;;;23.30;12.47;;;0.20;99.90;;;;;;5039106;28;20896;-66
2022/12/11 07:08:50;;;;;;;20.83;12.87;;;0.20;99.90;;;;;;5039185;28;20524;-66
2022/12/11 07:11:18;;;;;;;21.63;12.47;;;0.20;99.90;;;;;;5038191;28;20469;-66
2022/12/11 07:13:46;;;;;;;19.43;13.20;;;0.10;99.90;;;;;;5039423;28;20501;-66
2022/12/11 07:16:15;;;;;;;25.43;14.43;;;0.10;99.90;;;;;;5039287;28;20469;-66
2022/12/11 07:18:46;;;;;;;24.57;12.93;;;0.10;99.90;;;;;;5039273;28;20487;-67
2022/12/11 07:21:14;;;;;;;22.90;13.00;;;0.20;99.90;;;;;;5039079;28;20501;-66
2022/12/11 07:23:42;;;;;;;22.37;13.10;;;0.10;99.90;;;;;;5038982;28;20884;-66
2022/12/11 07:26:12;;;;;;;24.17;14.00;;;0.10;99.90;;;;;;5038915;28;20440;-66
2022/12/11 07:28:39;;;;;;;24.70;13.37;;;0.20;99.90;;;;;;5039021;28;20520;-67
2022/12/11 07:31:07;;;;;;;25.60;14.73;;;0.10;99.90;;;;;;5043521;28;20460;-66
2022/12/11 07:33:35;;;;;;;22.63;14.00;;;0.20;99.90;;;;;;5058722;28;20471;-66
2022/12/11 07:36:03;;;;;;;27.60;14.37;;;0.20;99.90;;;;;;5058804;28;20468;-66
2022/12/11 07:38:30;;;;;;;25.90;14.80;;;0.10;99.90;;;;;;5058777;28;20919;-66
2022/12/11 07:41:01;;;;;;;23.90;13.90;;;0.10;99.90;;;;;;5058294;28;20491;-66
2022/12/11 07:43:30;;;;;;;22.40;13.30;;;0.10;99.90;;;;;;5058848;28;20575;-66
2022/12/11 07:46:02;;;;;;;23.50;13.07;;;0.10;99.90;;;;;;5058610;28;21100;-66
2022/12/11 07:48:29;;;;;;;25.47;14.20;;;0.20;99.90;;;;;;5057965;28;20505;-66
2022/12/11 07:50:56;;;;;;;25.63;14.33;;;0.10;99.90;;;;;;5058476;28;20835;-66
2022/12/11 07:53:24;;;;;;;24.03;13.17;;;0.10;99.90;;;;;;5058178;28;20961;-66
2022/12/11 07:55:51;;;;;;;21.03;13.57;;;0.20;99.90;;;;;;5058442;28;20522;-66
2022/12/11 07:58:18;;;;;;;21.60;13.00;;;0.20;99.90;;;;;;5058231;28;20465;-66
2022/12/11 08:00:48;;;;;;;26.00;15.00;;;0.20;99.90;;;;;;5057908;28;20469;-66
2022/12/11 08:03:15;;;;;;;23.17;14.30;;;0.30;99.90;;;;;;5057350;28;20462;-66
2022/12/11 08:05:48;;;;;;;22.87;14.20;;;0.20;99.90;;;;;;5058105;28;20887;-66
2022/12/11 08:08:15;;;;;;;24.83;14.80;;;0.30;99.90;;;;;;5058236;28;20539;-66
2022/12/11 08:10:42;;;;;;;24.13;14.60;;;0.20;99.90;;;;;;5057518;28;20565;-66
2022/12/11 08:13:09;;;;;;;27.60;15.30;;;0.20;99.90;;;;;;5057594;28;20490;-66
2022/12/11 08:15:37;;;;;;;33.77;17.20;;;0.20;99.90;;;;;;5058371;28;20850;-66
2022/12/11 08:18:06;;;;;;;29.10;17.93;;;0.30;99.90;;;;;;5058108;28;20469;-66
2022/12/11 08:20:33;;;;;;;35.53;18.20;;;0.30;99.90;;;;;;5057709;28;20476;-66
2022/12/11 08:23:00;;;;;;;34.97;18.10;;;0.40;99.90;;;;;;5057486;28;20465;-67
2022/12/11 08:25:27;;;;;;;37.40;19.53;;;0.40;99.90;;;;;;5057760;28;20462;-67
2022/12/11 08:27:55;;;;;;;42.77;22.50;;;0.50;99.90;;;;;;5057855;28;20466;-67
2022/12/11 08:30:22;;;;;;;32.47;19.10;;;0.40;99.90;;;;;;5056346;28;20987;-66
2022/12/11 08:32:49;;;;;;;35.10;21.13;;;0.40;99.90;;;;;;5057545;28;20494;-66
2022/12/11 08:35:18;;;;;;;34.03;19.43;;;0.40;99.90;;;;;;5057346;28;20501;-67
2022/12/11 08:37:45;;;;;;;39.60;19.40;;;0.40;99.90;;;;;;5057856;28;20466;-66
2022/12/11 08:40:13;;;;;;;34.00;18.87;;;0.40;99.90;;;;;;5057755;28;20887;-66
2022/12/11 08:42:40;;;;;;;30.30;17.10;;;0.40;99.90;;;;;;5057251;28;20549;-67
2022/12/11 08:45:08;;;;;;;30.97;17.97;;;0.50;99.90;;;;;;5057399;28;20900;-67
2022/12/11 08:47:36;;;;;;;33.40;17.73;;;0.40;99.90;;;;;;5057909;28;20828;-66
2022/12/11 08:50:03;;;;;;;34.63;19.23;;;0.40;99.90;;;;;;5057107;28;20466;-66
2022/12/11 08:52:34;;;;;;;39.03;18.20;;;0.50;99.90;;;;;;5057225;28;20560;-67
2022/12/11 08:55:01;;;;;;;27.87;17.63;;;0.50;99.90;;;;;;5057545;28;20544;-66
2022/12/11 08:57:29;;;;;;;38.00;19.97;;;0.50;99.90;;;;;;5057590;28;20437;-66
2022/12/11 08:59:56;;;;;;;33.83;19.37;;;0.50;99.90;;;;;;5057694;28;20534;-66
2022/12/11 09:02:23;;;;;;;35.60;18.07;;;0.50;99.90;;;;;;5057172;28;20458;-67
2022/12/11 09:04:50;;;;;;;32.23;17.10;;;0.50;99.90;;;;;;5056831;28;20847;-66
2022/12/11 09:07:18;;;;;;;34.13;19.80;;;0.60;99.90;;;;;;5045890;28;20468;-66
2022/12/11 09:09:47;;;;;;;32.47;18.93;;;0.50;99.90;;;;;;5046914;28;20454;-67
2022/12/11 09:12:14;;;;;;;27.60;16.20;;;0.50;99.90;;;;;;5047732;28;20461;-66
2022/12/11 09:14:41;;;;;;;32.63;18.27;;;0.60;99.90;;;;;;5045028;28;20481;-67
2022/12/11 09:17:08;;;;;;;34.37;18.90;;;0.50;99.90;;;;;;5045953;28;20485;-67
2022/12/11 09:19:36;;;;;;;30.97;18.40;;;0.60;99.90;;;;;;5046943;28;20473;-66
2022/12/11 09:22:03;;;;;;;33.50;18.60;;;0.60;99.90;;;;;;5046093;28;20529;-67
2022/12/11 09:24:30;;;;;;;35.97;19.33;;;0.60;99.90;;;;;;5044299;28;20479;-66
2022/12/11 09:26:58;;;;;;;31.63;19.20;;;0.60;99.90;;;;;;5047583;28;20466;-67
2022/12/11 09:29:26;;;;;;;32.53;16.90;;;0.60;99.90;;;;;;5044664;28;20482;-66
2022/12/11 09:31:53;;;;;;;25.93;15.27;;;0.60;99.90;;;;;;5046723;28;20461;-67
2022/12/11 09:34:21;;;;;;;25.33;15.20;;;0.60;99.90;;;;;;5047515;28;20763;-67
2022/12/11 09:36:48;;;;;;;24.70;15.07;;;0.60;99.90;;;;;;5052224;28;20756;-67
2022/12/11 09:39:17;;;;;;;26.60;18.10;;;0.60;99.90;;;;;;5057390;28;20462;-67
2022/12/11 09:41:55;;;;;;;30.23;18.77;;;0.70;99.90;;;;;;5059599;28;20896;-66
2022/12/11 09:44:34;;;;;;;31.00;18.83;;;0.60;99.90;;;;;;5060649;28;20462;-67
2022/12/11 09:47:01;;;;;;;28.57;17.33;;;0.60;99.90;;;;;;5061171;28;20472;-67
2022/12/11 09:49:35;;;;;;;30.80;18.03;;;0.70;99.90;;;;;;5061067;28;20483;-67
2022/12/11 09:52:12;;;;;;;34.63;17.23;;;0.70;99.90;;;;;;5060358;28;20466;-67
2022/12/11 09:54:45;;;;;;;36.30;20.60;;;0.70;99.90;;;;;;5060866;28;20489;-67
2022/12/11 09:57:25;;;;;;;26.57;16.83;;;0.70;99.90;;;;;;5060639;28;20536;-67
2022/12/11 10:00:10;;;;;;;24.70;17.23;;;0.70;99.90;;;;;;5060942;28;20892;-67
2022/12/11 10:02:50;;;;;;;26.10;14.97;;;0.70;99.90;;;;;;5060582;28;20456;-67
2022/12/11 10:05:26;;;;;;;18.57;12.83;;;0.80;99.90;;;;;;5061082;28;20464;-67
2022/12/11 10:07:59;;;;;;;19.53;12.67;;;0.80;99.90;;;;;;5060792;28;20508;-67
2022/12/11 10:10:37;;;;;;;19.13;12.30;;;0.80;99.90;;;;;;5060554;28;20466;-67
2022/12/11 10:13:15;;;;;;;21.10;13.67;;;0.90;99.90;;;;;;5060582;28;20488;-67
2022/12/11 10:15:50;;;;;;;23.63;13.20;;;0.90;99.90;;;;;;5060726;28;20776;-67
2022/12/11 10:18:21;;;;;;;24.57;14.50;;;0.90;99.90;;;;;;5059758;28;20461;-67
2022/12/11 10:20:50;;;;;;;30.40;17.23;;;0.80;99.90;;;;;;5060198;28;20489;-67
2022/12/11 10:23:20;;;;;;;29.37;17.00;;;0.80;99.90;;;;;;5060413;28;20845;-67
2022/12/11 10:25:53;;;;;;;26.00;17.10;;;0.80;99.90;;;;;;5057915;28;20458;-67
2022/12/11 10:28:21;;;;;;;30.00;19.10;;;0.80;99.90;;;;;;5057999;28;20474;-67
2022/12/11 10:30:59;;;;;;;23.67;15.83;;;0.90;99.90;;;;;;5057915;28;20964;-67
2022/12/11 10:33:33;;;;;;;26.47;15.80;;;0.80;99.90;;;;;;5059764;28;20497;-67
2022/12/11 10:36:00;;;;;;;24.10;15.17;;;0.80;99.90;;;;;;5059753;28;20878;-68
2022/12/11 10:38:30;;;;;;;25.70;15.40;;;0.90;99.90;;;;;;5059550;28;20469;-67
2022/12/11 10:40:59;;;;;;;23.73;15.27;;;0.90;99.90;;;;;;5058829;28;20548;-67
2022/12/11 10:43:37;;;;;;;25.30;15.03;;;0.80;99.90;;;;;;5060144;28;20891;-67
2022/12/11 10:46:14;;;;;;;25.60;15.40;;;0.90;99.90;;;;;;5058634;28;20462;-67
2022/12/11 10:48:46;;;;;;;26.60;16.00;;;0.90;99.90;;;;;;5058521;28;20465;-67
2022/12/11 10:51:14;;;;;;;24.73;15.67;;;0.90;99.90;;;;;;5058247;28;20462;-67
2022/12/11 10:53:43;;;;;;;25.90;16.83;;;0.90;99.90;;;;;;5054733;28;20830;-67
2022/12/11 10:56:12;;;;;;;29.40;17.17;;;0.90;99.90;;;;;;5048187;28;20553;-67
2022/12/11 10:59:05;;;;;;;33.63;18.00;;;0.80;99.90;;;;;;5046456;28;20462;-67
2022/12/11 11:01:34;;;;;;;32.73;18.33;;;0.90;99.90;;;;;;5049318;28;20533;-67
2022/12/11 11:04:06;;;;;;;33.33;20.07;;;0.90;99.90;;;;;;5049036;28;20549;-67
2022/12/11 11:06:35;;;;;;;40.00;21.80;;;0.90;99.90;;;;;;5051299;28;20465;-67
2022/12/11 11:09:03;;;;;;;39.80;22.13;;;0.90;99.90;;;;;;5058551;28;20465;-67
2022/12/11 11:11:32;;;;;;;36.73;20.40;;;0.90;99.90;;;;;;5059649;28;20469;-66
2022/12/11 11:14:12;;;;;;;38.87;20.60;;;0.80;99.90;;;;;;5059675;28;20600;-67
2022/12/11 11:16:43;;;;;;;40.60;22.30;;;0.80;99.90;;;;;;5059167;28;20476;-67
2022/12/11 11:19:19;;;;;;;36.10;21.70;;;0.80;99.90;;;;;;5059667;28;20539;-67
2022/12/11 11:21:51;;;;;;;37.77;20.57;;;0.90;99.90;;;;;;5059959;28;20468;-67
2022/12/11 11:24:28;;;;;;;36.40;19.87;;;0.90;99.90;;;;;;5059756;28;20522;-66
2022/12/11 11:26:56;;;;;;;35.70;20.63;;;0.90;99.90;;;;;;5059147;28;20557;-67
2022/12/11 11:29:30;;;;;;;37.67;21.17;;;0.90;99.90;;;;;;5058674;28;20493;-67
2022/12/11 11:32:12;;;;;;;31.43;19.30;;;0.90;99.90;;;;;;5059542;28;20776;-67
2022/12/11 11:34:39;;;;;;;38.37;21.30;;;0.90;99.90;;;;;;5059215;28;20600;-67
2022/12/11 11:37:24;;;;;;;35.83;20.13;;;0.90;99.90;;;;;;5057813;28;20553;-66
2022/12/11 11:39:56;;;;;;;33.00;19.47;;;0.90;99.90;;;;;;5057507;28;20448;-67
2022/12/11 11:42:32;;;;;;;35.53;21.03;;;1.00;99.90;;;;;;5038699;28;20913;-67
2022/12/11 11:45:05;;;;;;;36.17;22.23;;;1.00;99.90;;;;;;5037921;28;20459;-67
2022/12/11 11:47:40;;;;;;;29.17;17.07;;;1.00;99.90;;;;;;5037764;28;20553;-67
2022/12/11 11:50:16;;;;;;;27.67;15.53;;;1.00;99.90;;;;;;5037859;28;20537;-67
2022/12/11 11:52:48;;;;;;;25.33;14.73;;;1.00;99.90;;;;;;5038290;28;20531;-66
2022/12/11 11:55:18;;;;;;;25.63;14.73;;;1.00;99.90;;;;;;5038533;28;20483;-67
2022/12/11 11:57:51;;;;;;;29.80;15.90;;;0.90;99.90;;;;;;5037965;28;20438;-67
2022/12/11 12:00:21;;;;;;;25.80;15.33;;;0.90;99.90;;;;;;5038095;28;20467;-67
2022/12/11 12:02:54;;;;;;;29.27;17.50;;;0.80;99.90;;;;;;5038758;28;20907;-67
2022/12/11 12:05:28;;;;;;;30.57;18.30;;;0.90;99.90;;;;;;5038617;28;20509;-68
2022/12/11 12:08:09;;;;;;;29.07;16.63;;;1.00;99.90;;;;;;5045013;28;20522;-68
2022/12/11 12:10:44;;;;;;;27.23;16.87;;;1.10;99.90;;;;;;5055820;28;20493;-68
2022/12/11 12:13:21;;;;;;;31.53;18.57;;;1.20;99.90;;;;;;5053193;28;20553;-68
2022/12/11 12:15:55;;;;;;;28.13;17.47;;;1.30;99.90;;;;;;5056734;28;20471;-68
2022/12/11 12:18:35;;;;;;;32.97;21.00;;;1.50;99.90;;;;;;5054938;28;20766;-68
2022/12/11 12:21:15;;;;;;;34.73;20.10;;;1.60;99.90;;;;;;5055772;28;20535;-68
2022/12/11 12:23:58;;;;;;;26.67;16.83;;;1.70;99.90;;;;;;5056562;28;20454;-68
2022/12/11 12:26:28;;;;;;;32.13;22.17;;;1.80;99.90;;;;;;5056033;28;20537;-68
2022/12/11 12:29:09;;;;;;;27.60;18.10;;;1.80;99.90;;;;;;5055563;28;20585;-68
2022/12/11 12:31:51;;;;;;;27.40;17.00;;;1.80;99.90;;;;;;5055038;28;20557;-68
2022/12/11 12:34:27;;;;;;;25.00;17.17;;;1.60;99.90;;;;;;5054525;28;20498;-68
2022/12/11 12:37:04;;;;;;;26.17;16.53;;;1.50;99.90;;;;;;5054328;28;20531;-68
2022/12/11 12:39:42;;;;;;;28.73;16.33;;;1.60;99.90;;;;;;5050731;28;20465;-68
2022/12/11 12:42:20;;;;;;;25.07;16.00;;;1.70;99.90;;;;;;5046884;28;20481;-68
2022/12/11 12:44:55;;;;;;;27.40;16.57;;;1.90;99.90;;;;;;5053476;28;20450;-68
2022/12/11 12:47:23;;;;;;;30.27;15.10;;;1.90;99.90;;;;;;5048484;28;20462;-68
2022/12/11 12:49:54;;;;;;;28.03;16.93;;;2.00;99.90;;;;;;5034698;28;20521;-68
2022/12/11 12:52:25;;;;;;;30.37;16.50;;;2.00;99.90;;;;;;5036056;28;20730;-68
2022/12/11 12:55:16;;;;;;;30.27;17.10;;;2.00;99.90;;;;;;5036371;28;20499;-68